Time,TemperatureF,DewpointF,PressureIn,WindDirection,WindDirectionDegrees,WindSpeedMPH,WindSpeedGustMPH,Humidity,HourlyPrecipIn,Conditions,Clouds,dailyrainin,SolarRadiationWatts/m^2,SoftwareType,DateUTC
2013-01-03 00:11:00,40.0,16.0,-100.00,ESE,108,4.0,13.0,38,0.00,,,-99.99,0.000000,,2013-01-03 08:11:00,
2013-01-03 00:33:00,40.0,16.0,-100.00,ESE,108,4.0,13.0,38,0.00,,,-99.99,0.000000,,2013-01-03 08:33:00,
2013-01-03 00:43:00,40.0,16.0,-100.00,ESE,108,4.0,13.0,38,0.00,,,-99.99,0.000000,,2013-01-03 08:43:00,
2013-01-03 00:53:00,40.0,16.0,-100.00,ESE,108,4.0,13.0,38,0.00,,,-99.99,0.000000,,2013-01-03 08:53:00,
2013-01-03 01:02:00,40.0,16.0,-100.00,ESE,108,4.0,13.0,38,0.00,,,-99.99,0.000000,,2013-01-03 09:02:00,
2013-01-03 01:11:00,42.0,15.0,-100.00,ESE,105,6.0,12.0,33,0.00,,,0.00,0.000000,,2013-01-03 09:11:00,
2013-01-03 01:34:00,42.0,15.0,-100.00,ESE,105,6.0,12.0,33,0.00,,,0.00,0.000000,,2013-01-03 09:34:00,
2013-01-03 02:02:00,42.0,15.0,-100.00,ESE,105,6.0,12.0,33,0.00,,,0.00,0.000000,,2013-01-03 10:02:00,
2013-01-03 02:11:00,42.0,15.0,-100.00,ESE,103,7.0,12.0,33,0.00,,,0.00,0.000000,,2013-01-03 10:11:00,
2013-01-03 02:33:00,42.0,15.0,-100.00,ESE,103,7.0,12.0,33,0.00,,,0.00,0.000000,,2013-01-03 10:33:00,
2013-01-03 02:43:00,42.0,15.0,-100.00,ESE,103,7.0,12.0,33,0.00,,,0.00,0.000000,,2013-01-03 10:43:00,
2013-01-03 02:52:00,42.0,15.0,-100.00,ESE,103,7.0,12.0,33,0.00,,,0.00,0.000000,,2013-01-03 10:52:00,
2013-01-03 03:02:00,42.0,15.0,-100.00,ESE,103,7.0,12.0,33,0.00,,,0.00,0.000000,,2013-01-03 11:02:00,
2013-01-03 03:11:00,38.0,16.0,-100.00,ESE,107,3.0,8.0,41,0.00,,,0.00,0.000000,,2013-01-03 11:11:00,
2013-01-03 03:33:00,38.0,16.0,-100.00,ESE,107,3.0,8.0,41,0.00,,,0.00,0.000000,,2013-01-03 11:33:00,
2013-01-03 03:43:00,38.0,16.0,-100.00,ESE,107,3.0,8.0,41,0.00,,,0.00,0.000000,,2013-01-03 11:43:00,
2013-01-03 03:53:00,38.0,16.0,-100.00,ESE,107,3.0,8.0,41,0.00,,,0.00,0.000000,,2013-01-03 11:53:00,
2013-01-03 04:02:00,38.0,16.0,-100.00,ESE,107,3.0,8.0,41,0.00,,,0.00,0.000000,,2013-01-03 12:02:00,
2013-01-03 04:11:00,41.0,15.0,-100.00,ESE,105,6.0,11.0,34,0.00,,,0.00,0.000000,,2013-01-03 12:11:00,
2013-01-03 04:43:00,41.0,15.0,-100.00,ESE,105,6.0,11.0,34,0.00,,,0.00,0.000000,,2013-01-03 12:43:00,
2013-01-03 04:53:00,41.0,15.0,-100.00,ESE,105,6.0,11.0,34,0.00,,,0.00,0.000000,,2013-01-03 12:53:00,
2013-01-03 05:02:00,41.0,15.0,-100.00,ESE,105,6.0,11.0,34,0.00,,,0.00,0.000000,,2013-01-03 13:02:00,
2013-01-03 05:11:00,43.0,14.0,-100.00,East,82,8.0,13.0,31,0.00,,,0.00,0.000000,,2013-01-03 13:11:00,
2013-01-03 05:33:00,43.0,14.0,-100.00,East,82,8.0,13.0,31,0.00,,,0.00,0.000000,,2013-01-03 13:33:00,
2013-01-03 05:42:00,43.0,14.0,-100.00,East,82,8.0,13.0,31,0.00,,,0.00,0.000000,,2013-01-03 13:42:00,
2013-01-03 05:53:00,43.0,14.0,-100.00,East,82,8.0,13.0,31,0.00,,,0.00,0.000000,,2013-01-03 13:53:00,
2013-01-03 06:02:00,43.0,14.0,-100.00,East,82,8.0,13.0,31,0.00,,,0.00,0.000000,,2013-01-03 14:02:00,
2013-01-03 06:11:00,44.0,14.0,-100.00,East,82,7.0,11.0,29,0.00,,,0.00,0.000000,,2013-01-03 14:11:00,
2013-01-03 06:33:00,44.0,14.0,-100.00,East,82,7.0,11.0,29,0.00,,,0.00,0.000000,,2013-01-03 14:33:00,
2013-01-03 06:43:00,44.0,14.0,-100.00,East,82,7.0,11.0,29,0.00,,,0.00,0.000000,,2013-01-03 14:43:00,
2013-01-03 06:53:00,44.0,14.0,-100.00,East,82,7.0,11.0,29,0.00,,,0.00,0.000000,,2013-01-03 14:53:00,
2013-01-03 07:02:00,44.0,14.0,-100.00,East,82,7.0,11.0,29,0.00,,,0.00,0.000000,,2013-01-03 15:02:00,
2013-01-03 07:11:00,44.0,15.0,-100.00,East,80,6.0,10.0,30,0.00,,,0.00,0.000000,,2013-01-03 15:11:00,
2013-01-03 07:34:00,44.0,15.0,-100.00,East,80,6.0,10.0,30,0.00,,,0.00,0.000000,,2013-01-03 15:34:00,
2013-01-03 07:43:00,44.0,15.0,-100.00,East,80,6.0,10.0,30,0.00,,,0.00,0.000000,,2013-01-03 15:43:00,
2013-01-03 07:53:00,44.0,15.0,-100.00,East,80,6.0,10.0,30,0.00,,,0.00,0.000000,,2013-01-03 15:53:00,
2013-01-03 08:03:00,44.0,15.0,-100.00,East,80,6.0,10.0,30,0.00,,,0.00,0.000000,,2013-01-03 16:03:00,
2013-01-03 08:11:00,47.0,15.0,-100.00,East,87,5.0,9.0,27,-99.99,,,-99.99,35.000000,,2013-01-03 16:11:00,
2013-01-03 08:34:00,47.0,15.0,-100.00,East,87,5.0,9.0,27,-99.99,,,-99.99,35.000000,,2013-01-03 16:34:00,
2013-01-03 08:43:00,47.0,15.0,-100.00,East,87,5.0,9.0,27,-99.99,,,-99.99,35.000000,,2013-01-03 16:43:00,
2013-01-03 08:53:00,47.0,15.0,-100.00,East,87,5.0,9.0,27,-99.99,,,-99.99,35.000000,,2013-01-03 16:53:00,
2013-01-03 09:02:00,47.0,15.0,-100.00,East,87,5.0,9.0,27,-99.99,,,-99.99,35.000000,,2013-01-03 17:02:00,
2013-01-03 09:33:00,55.0,18.0,-100.00,East,87,5.0,9.0,23,-99.99,,,0.00,211.000000,,2013-01-03 17:33:00,
2013-01-03 10:33:00,61.0,24.0,-100.00,WSW,240,4.0,7.0,24,-99.99,,,0.00,380.000000,,2013-01-03 18:33:00,
2013-01-03 11:11:00,59.0,20.0,-100.00,WNW,285,8.0,10.0,22,-99.99,,,0.00,465.000000,,2013-01-03 19:11:00,
2013-01-03 11:56:00,59.0,20.0,-100.00,WNW,285,8.0,10.0,22,-99.99,,,0.00,465.000000,,2013-01-03 19:56:00,
2013-01-03 12:02:00,59.0,20.0,-100.00,WNW,285,8.0,10.0,22,-99.99,,,0.00,465.000000,,2013-01-03 20:02:00,
2013-01-03 12:11:00,60.0,20.0,-100.00,West,281,6.0,10.0,21,0.00,,,0.00,483.000000,,2013-01-03 20:11:00,
2013-01-03 12:33:00,60.0,20.0,-100.00,West,281,6.0,10.0,21,0.00,,,0.00,483.000000,,2013-01-03 20:33:00,
2013-01-03 12:43:00,60.0,20.0,-100.00,West,281,6.0,10.0,21,0.00,,,0.00,483.000000,,2013-01-03 20:43:00,
2013-01-03 12:53:00,60.0,20.0,-100.00,West,281,6.0,10.0,21,0.00,,,0.00,483.000000,,2013-01-03 20:53:00,
2013-01-03 13:02:00,60.0,20.0,-100.00,West,281,6.0,10.0,21,0.00,,,0.00,483.000000,,2013-01-03 21:02:00,
2013-01-03 13:11:00,59.0,20.0,-100.00,WSW,245,3.0,10.0,22,0.00,,,0.00,256.000000,,2013-01-03 21:11:00,
2013-01-03 13:37:00,59.0,20.0,-100.00,WSW,245,3.0,10.0,22,0.00,,,0.00,256.000000,,2013-01-03 21:37:00,
2013-01-03 13:50:00,59.0,20.0,-100.00,WSW,245,3.0,10.0,22,0.00,,,0.00,256.000000,,2013-01-03 21:50:00,
2013-01-03 14:02:00,59.0,20.0,-100.00,WSW,245,3.0,10.0,22,0.00,,,0.00,256.000000,,2013-01-03 22:02:00,
2013-01-03 14:11:00,63.0,20.0,-100.00,WNW,298,7.0,10.0,19,0.00,,,0.00,461.000000,,2013-01-03 22:11:00,
2013-01-03 14:33:00,63.0,20.0,-100.00,WNW,298,7.0,10.0,19,0.00,,,0.00,461.000000,,2013-01-03 22:33:00,
2013-01-03 14:43:00,63.0,20.0,-100.00,WNW,298,7.0,10.0,19,0.00,,,0.00,461.000000,,2013-01-03 22:43:00,
2013-01-03 14:52:00,63.0,20.0,-100.00,WNW,298,7.0,10.0,19,0.00,,,0.00,461.000000,,2013-01-03 22:52:00,
2013-01-03 15:02:00,63.0,20.0,-100.00,WNW,298,7.0,10.0,19,0.00,,,0.00,461.000000,,2013-01-03 23:02:00,
2013-01-03 15:11:00,60.0,21.0,-100.00,WNW,299,10.0,16.0,22,0.00,,,0.00,380.000000,,2013-01-03 23:11:00,
2013-01-03 15:43:00,60.0,21.0,-100.00,WNW,299,10.0,16.0,22,0.00,,,0.00,380.000000,,2013-01-03 23:43:00,
2013-01-03 15:53:00,60.0,21.0,-100.00,WNW,299,10.0,16.0,22,0.00,,,0.00,380.000000,,2013-01-03 23:53:00,
2013-01-03 16:02:00,60.0,21.0,-100.00,WNW,299,10.0,16.0,22,0.00,,,0.00,380.000000,,2013-01-04 00:02:00,
2013-01-03 16:11:00,58.0,22.0,-100.00,WNW,296,8.0,12.0,25,0.00,,,0.00,184.000000,,2013-01-04 00:11:00,
2013-01-03 16:33:00,58.0,22.0,-100.00,WNW,296,8.0,12.0,25,0.00,,,0.00,184.000000,,2013-01-04 00:33:00,
2013-01-03 16:42:00,58.0,22.0,-100.00,WNW,296,8.0,12.0,25,0.00,,,0.00,184.000000,,2013-01-04 00:42:00,
2013-01-03 16:52:00,58.0,22.0,-100.00,WNW,296,8.0,12.0,25,0.00,,,0.00,184.000000,,2013-01-04 00:52:00,
2013-01-03 17:02:00,58.0,22.0,-100.00,WNW,296,8.0,12.0,25,0.00,,,0.00,184.000000,,2013-01-04 01:02:00,
2013-01-03 17:11:00,51.0,24.0,-100.00,NE,56,4.0,10.0,35,0.00,,,0.00,15.000000,,2013-01-04 01:11:00,
2013-01-03 17:33:00,51.0,24.0,-100.00,NE,56,4.0,10.0,35,0.00,,,0.00,15.000000,,2013-01-04 01:33:00,
2013-01-03 18:02:00,51.0,24.0,-100.00,NE,56,4.0,10.0,35,0.00,,,0.00,15.000000,,2013-01-04 02:02:00,
2013-01-03 18:11:00,47.0,25.0,-100.00,ESE,107,5.0,11.0,42,0.00,,,0.00,0.000000,,2013-01-04 02:11:00,
2013-01-03 18:33:00,47.0,25.0,-100.00,ESE,107,5.0,11.0,42,0.00,,,0.00,0.000000,,2013-01-04 02:33:00,
2013-01-03 18:42:00,47.0,25.0,-100.00,ESE,107,5.0,11.0,42,0.00,,,0.00,0.000000,,2013-01-04 02:42:00,
2013-01-03 18:53:00,47.0,25.0,-100.00,ESE,107,5.0,11.0,42,0.00,,,0.00,0.000000,,2013-01-04 02:53:00,
2013-01-03 19:02:00,47.0,25.0,-100.00,ESE,107,5.0,11.0,42,0.00,,,0.00,0.000000,,2013-01-04 03:02:00,
2013-01-03 19:11:00,45.0,25.0,-100.00,East,90,6.0,8.0,45,0.00,,,0.00,0.000000,,2013-01-04 03:11:00,
2013-01-03 19:33:00,45.0,25.0,-100.00,East,90,6.0,8.0,45,0.00,,,0.00,0.000000,,2013-01-04 03:33:00,
2013-01-03 19:43:00,45.0,25.0,-100.00,East,90,6.0,8.0,45,0.00,,,0.00,0.000000,,2013-01-04 03:43:00,
2013-01-03 19:52:00,45.0,25.0,-100.00,East,90,6.0,8.0,45,0.00,,,0.00,0.000000,,2013-01-04 03:52:00,
2013-01-03 20:02:00,45.0,25.0,-100.00,East,90,6.0,8.0,45,0.00,,,0.00,0.000000,,2013-01-04 04:02:00,
2013-01-03 20:11:00,40.0,25.0,-100.00,SW,224,1.0,5.0,54,0.00,,,0.00,0.000000,,2013-01-04 04:11:00,
2013-01-03 20:32:00,40.0,25.0,-100.00,SW,224,1.0,5.0,54,0.00,,,0.00,0.000000,,2013-01-04 04:32:00,
2013-01-03 20:42:00,40.0,25.0,-100.00,SW,224,1.0,5.0,54,0.00,,,0.00,0.000000,,2013-01-04 04:42:00,
2013-01-03 20:52:00,40.0,25.0,-100.00,SW,224,1.0,5.0,54,0.00,,,0.00,0.000000,,2013-01-04 04:52:00,
2013-01-03 21:03:00,40.0,25.0,-100.00,SW,224,1.0,5.0,54,0.00,,,0.00,0.000000,,2013-01-04 05:03:00,
2013-01-03 21:11:00,42.0,24.0,-100.00,ESE,123,4.0,6.0,49,0.00,,,0.00,0.000000,,2013-01-04 05:11:00,
2013-01-03 21:33:00,42.0,24.0,-100.00,ESE,123,4.0,6.0,49,0.00,,,0.00,0.000000,,2013-01-04 05:33:00,
2013-01-03 21:42:00,42.0,24.0,-100.00,ESE,123,4.0,6.0,49,0.00,,,0.00,0.000000,,2013-01-04 05:42:00,
2013-01-03 21:52:00,42.0,24.0,-100.00,ESE,123,4.0,6.0,49,0.00,,,0.00,0.000000,,2013-01-04 05:52:00,
2013-01-03 22:02:00,42.0,24.0,-100.00,ESE,123,4.0,6.0,49,0.00,,,0.00,0.000000,,2013-01-04 06:02:00,
2013-01-03 22:11:00,41.0,23.0,-100.00,ESE,104,5.0,7.0,49,0.00,,,0.00,0.000000,,2013-01-04 06:11:00,
2013-01-03 22:33:00,41.0,23.0,-100.00,ESE,104,5.0,7.0,49,0.00,,,0.00,0.000000,,2013-01-04 06:33:00,
2013-01-03 22:42:00,41.0,23.0,-100.00,ESE,104,5.0,7.0,49,0.00,,,0.00,0.000000,,2013-01-04 06:42:00,
2013-01-03 22:52:00,41.0,23.0,-100.00,ESE,104,5.0,7.0,49,0.00,,,0.00,0.000000,,2013-01-04 06:52:00,
2013-01-03 23:02:00,41.0,23.0,-100.00,ESE,104,5.0,7.0,49,0.00,,,0.00,0.000000,,2013-01-04 07:02:00,
2013-01-03 23:11:00,44.0,22.0,-100.00,ESE,104,5.0,8.0,41,0.00,,,-99.99,0.000000,,2013-01-04 07:11:00,
2013-01-03 23:32:00,44.0,22.0,-100.00,ESE,104,5.0,8.0,41,0.00,,,-99.99,0.000000,,2013-01-04 07:32:00,
2013-01-03 23:42:00,44.0,22.0,-100.00,ESE,104,5.0,8.0,41,0.00,,,-99.99,0.000000,,2013-01-04 07:42:00,
2013-01-03 23:52:00,44.0,22.0,-100.00,ESE,104,5.0,8.0,41,0.00,,,-99.99,0.000000,,2013-01-04 07:52:00,